sensor_id;sensor_type;location;lat;lon;timestamp;pressure;altitude;pressure_sealevel;temperature;humidity
45050;BME280;61798;48.048;-1.928;2022-10-22T00:01:36;99951.59;;;13.60;95.04
45050;BME280;61798;48.048;-1.928;2022-10-22T00:03:43;99942.09;;;13.57;94.70
45050;BME280;61798;48.048;-1.928;2022-10-22T00:05:49;99970.13;;;13.68;94.80
45050;BME280;61798;48.048;-1.928;2022-10-22T00:07:55;99971.38;;;13.66;94.84
45050;BME280;61798;48.048;-1.928;2022-10-22T00:10:01;99978.06;;;13.63;94.70
45050;BME280;61798;48.048;-1.928;2022-10-22T00:12:07;99988.97;;;13.68;94.89
45050;BME280;61798;48.048;-1.928;2022-10-22T00:14:13;99975.63;;;13.42;95.74
45050;BME280;61798;48.048;-1.928;2022-10-22T00:16:20;99965.13;;;13.22;95.93
45050;BME280;61798;48.048;-1.928;2022-10-22T00:18:26;99968.63;;;13.41;95.00
45050;BME280;61798;48.048;-1.928;2022-10-22T00:20:32;100002.13;;;13.58;95.12
45050;BME280;61798;48.048;-1.928;2022-10-22T00:22:38;99970.34;;;13.36;94.82
45050;BME280;61798;48.048;-1.928;2022-10-22T00:24:44;99998.44;;;13.40;95.34
45050;BME280;61798;48.048;-1.928;2022-10-22T00:26:50;99968.53;;;13.17;95.61
45050;BME280;61798;48.048;-1.928;2022-10-22T00:28:56;99994.19;;;13.32;95.89
45050;BME280;61798;48.048;-1.928;2022-10-22T00:31:02;100000.16;;;13.34;95.95
45050;BME280;61798;48.048;-1.928;2022-10-22T00:33:08;100000.16;;;13.34;96.33
45050;BME280;61798;48.048;-1.928;2022-10-22T00:35:14;100015.06;;;13.37;96.61
45050;BME280;61798;48.048;-1.928;2022-10-22T00:37:20;100000.09;;;13.22;96.62
45050;BME280;61798;48.048;-1.928;2022-10-22T00:39:27;100003.31;;;13.31;96.13
45050;BME280;61798;48.048;-1.928;2022-10-22T00:41:33;100025.94;;;13.42;96.07
45050;BME280;61798;48.048;-1.928;2022-10-22T00:46:36;100013.31;;;13.42;95.71
45050;BME280;61798;48.048;-1.928;2022-10-22T00:48:41;100014.22;;;13.36;95.67
45050;BME280;61798;48.048;-1.928;2022-10-22T00:51:00;100035.28;;;13.39;96.43
45050;BME280;61798;48.048;-1.928;2022-10-22T00:53:11;100030.53;;;13.41;96.17
45050;BME280;61798;48.048;-1.928;2022-10-22T00:55:19;100027.84;;;13.41;96.72
45050;BME280;61798;48.048;-1.928;2022-10-22T00:57:26;100020.22;;;13.19;97.19
45050;BME280;61798;48.048;-1.928;2022-10-22T00:59:32;100036.59;;;13.18;97.64
45050;BME280;61798;48.048;-1.928;2022-10-22T01:01:38;100032.94;;;13.12;98.13
45050;BME280;61798;48.048;-1.928;2022-10-22T01:03:44;100038.53;;;13.10;98.46
45050;BME280;61798;48.048;-1.928;2022-10-22T01:05:56;100043.63;;;13.19;98.55
45050;BME280;61798;48.048;-1.928;2022-10-22T01:08:03;100011.44;;;12.93;99.33
45050;BME280;61798;48.048;-1.928;2022-10-22T01:15:05;100037.88;;;12.77;100.00
45050;BME280;61798;48.048;-1.928;2022-10-22T01:18:23;100043.66;;;12.74;100.00
45050;BME280;61798;48.048;-1.928;2022-10-22T01:25:46;100066.38;;;12.78;100.00
45050;BME280;61798;48.048;-1.928;2022-10-22T01:28:20;100073.25;;;12.74;100.00
45050;BME280;61798;48.048;-1.928;2022-10-22T01:30:28;100070.69;;;12.61;100.00
45050;BME280;61798;48.048;-1.928;2022-10-22T01:32:56;100074.22;;;12.61;100.00
45050;BME280;61798;48.048;-1.928;2022-10-22T01:35:06;100065.91;;;12.63;100.00
45050;BME280;61798;48.048;-1.928;2022-10-22T01:37:14;100072.72;;;12.65;100.00
45050;BME280;61798;48.048;-1.928;2022-10-22T01:39:23;100054.03;;;12.52;100.00
45050;BME280;61798;48.048;-1.928;2022-10-22T01:41:30;100075.31;;;12.53;100.00
45050;BME280;61798;48.048;-1.928;2022-10-22T01:43:36;100054.75;;;12.40;100.00
45050;BME280;61798;48.048;-1.928;2022-10-22T01:45:56;100068.34;;;12.45;100.00
45050;BME280;61798;48.048;-1.928;2022-10-22T01:48:13;100082.00;;;12.44;100.00
45050;BME280;61798;48.048;-1.928;2022-10-22T01:53:02;100093.00;;;12.35;100.00
45050;BME280;61798;48.048;-1.928;2022-10-22T01:58:46;100082.75;;;12.25;100.00
45050;BME280;61798;48.048;-1.928;2022-10-22T02:00:31;100072.69;;;12.14;100.00
45050;BME280;61798;48.048;-1.928;2022-10-22T02:03:22;100076.63;;;12.11;100.00
45050;BME280;61798;48.048;-1.928;2022-10-22T02:05:27;100070.91;;;12.01;100.00
45050;BME280;61798;48.048;-1.928;2022-10-22T02:07:42;100079.94;;;12.06;100.00
45050;BME280;61798;48.048;-1.928;2022-10-22T02:09:50;100068.00;;;12.02;100.00
45050;BME280;61798;48.048;-1.928;2022-10-22T02:12:00;100084.69;;;12.11;100.00
45050;BME280;61798;48.048;-1.928;2022-10-22T02:14:08;100064.78;;;11.93;100.00
45050;BME280;61798;48.048;-1.928;2022-10-22T02:16:27;100078.91;;;12.08;100.00
45050;BME280;61798;48.048;-1.928;2022-10-22T02:18:36;100080.00;;;12.00;100.00
45050;BME280;61798;48.048;-1.928;2022-10-22T02:20:44;100084.16;;;11.95;100.00
45050;BME280;61798;48.048;-1.928;2022-10-22T02:22:51;100083.13;;;11.97;100.00
45050;BME280;61798;48.048;-1.928;2022-10-22T02:24:57;100073.91;;;11.79;100.00
45050;BME280;61798;48.048;-1.928;2022-10-22T02:27:15;100084.25;;;11.82;100.00
45050;BME280;61798;48.048;-1.928;2022-10-22T02:29:27;100082.13;;;11.91;100.00
45050;BME280;61798;48.048;-1.928;2022-10-22T02:31:37;100050.69;;;11.59;100.00
45050;BME280;61798;48.048;-1.928;2022-10-22T02:33:48;100066.50;;;11.81;100.00
45050;BME280;61798;48.048;-1.928;2022-10-22T02:35:57;100077.38;;;11.93;100.00
45050;BME280;61798;48.048;-1.928;2022-10-22T02:38:05;100074.28;;;11.89;100.00
45050;BME280;61798;48.048;-1.928;2022-10-22T02:40:12;100070.13;;;11.93;100.00
45050;BME280;61798;48.048;-1.928;2022-10-22T02:42:18;100031.72;;;11.93;100.00
45050;BME280;61798;48.048;-1.928;2022-10-22T02:44:24;100074.09;;;12.23;100.00
45050;BME280;61798;48.048;-1.928;2022-10-22T02:46:30;100078.47;;;12.11;100.00
45050;BME280;61798;48.048;-1.928;2022-10-22T02:48:36;100049.94;;;11.84;100.00
45050;BME280;61798;48.048;-1.928;2022-10-22T02:50:42;100057.53;;;11.94;100.00
45050;BME280;61798;48.048;-1.928;2022-10-22T02:52:48;100077.44;;;12.12;100.00
45050;BME280;61798;48.048;-1.928;2022-10-22T02:54:54;100061.94;;;12.14;100.00
45050;BME280;61798;48.048;-1.928;2022-10-22T02:57:00;100048.09;;;12.10;100.00
45050;BME280;61798;48.048;-1.928;2022-10-22T02:59:06;100062.09;;;12.26;100.00
45050;BME280;61798;48.048;-1.928;2022-10-22T03:01:11;100062.50;;;12.23;100.00
45050;BME280;61798;48.048;-1.928;2022-10-22T03:03:17;100076.88;;;12.35;100.00
45050;BME280;61798;48.048;-1.928;2022-10-22T03:05:23;100040.09;;;12.03;100.00
45050;BME280;61798;48.048;-1.928;2022-10-22T03:07:29;100066.25;;;12.15;100.00
45050;BME280;61798;48.048;-1.928;2022-10-22T03:09:35;100069.59;;;12.17;100.00
45050;BME280;61798;48.048;-1.928;2022-10-22T03:11:41;100073.50;;;12.14;100.00
45050;BME280;61798;48.048;-1.928;2022-10-22T03:13:47;100075.38;;;12.14;100.00
45050;BME280;61798;48.048;-1.928;2022-10-22T03:15:53;100042.78;;;11.78;100.00
45050;BME280;61798;48.048;-1.928;2022-10-22T03:17:59;100063.06;;;11.99;100.00
45050;BME280;61798;48.048;-1.928;2022-10-22T03:20:05;100072.41;;;12.29;100.00
45050;BME280;61798;48.048;-1.928;2022-10-22T03:22:22;100085.00;;;12.29;100.00
45050;BME280;61798;48.048;-1.928;2022-10-22T03:24:39;100089.88;;;12.39;100.00
45050;BME280;61798;48.048;-1.928;2022-10-22T03:26:49;100099.00;;;12.37;100.00
45050;BME280;61798;48.048;-1.928;2022-10-22T03:28:56;100080.09;;;12.25;100.00
45050;BME280;61798;48.048;-1.928;2022-10-22T03:31:02;100083.31;;;12.34;100.00
45050;BME280;61798;48.048;-1.928;2022-10-22T03:33:08;100096.81;;;12.53;100.00
45050;BME280;61798;48.048;-1.928;2022-10-22T03:35:14;100101.13;;;12.54;100.00
45050;BME280;61798;48.048;-1.928;2022-10-22T03:37:20;100081.72;;;12.52;100.00
45050;BME280;61798;48.048;-1.928;2022-10-22T03:39:28;100098.16;;;12.63;100.00
45050;BME280;61798;48.048;-1.928;2022-10-22T03:41:36;100107.78;;;12.52;100.00
45050;BME280;61798;48.048;-1.928;2022-10-22T03:43:42;100117.69;;;12.51;100.00
45050;BME280;61798;48.048;-1.928;2022-10-22T03:45:49;100093.00;;;12.35;100.00
45050;BME280;61798;48.048;-1.928;2022-10-22T03:47:55;100077.59;;;12.24;100.00
45050;BME280;61798;48.048;-1.928;2022-10-22T03:50:02;100104.97;;;12.40;100.00
45050;BME280;61798;48.048;-1.928;2022-10-22T03:52:11;100102.00;;;12.48;100.00
45050;BME280;61798;48.048;-1.928;2022-10-22T03:54:17;100081.28;;;12.30;100.00
45050;BME280;61798;48.048;-1.928;2022-10-22T03:56:23;100091.53;;;12.40;100.00
45050;BME280;61798;48.048;-1.928;2022-10-22T03:58:29;100086.88;;;12.28;100.00
45050;BME280;61798;48.048;-1.928;2022-10-22T04:00:35;100106.44;;;12.35;100.00
45050;BME280;61798;48.048;-1.928;2022-10-22T04:02:41;100104.25;;;12.25;100.00
45050;BME280;61798;48.048;-1.928;2022-10-22T04:04:47;100070.34;;;11.92;100.00
45050;BME280;61798;48.048;-1.928;2022-10-22T04:06:53;100094.06;;;11.95;100.00
45050;BME280;61798;48.048;-1.928;2022-10-22T04:08:59;100072.44;;;11.83;100.00
45050;BME280;61798;48.048;-1.928;2022-10-22T04:11:06;100122.97;;;12.00;100.00
45050;BME280;61798;48.048;-1.928;2022-10-22T04:13:12;100125.44;;;12.01;100.00
45050;BME280;61798;48.048;-1.928;2022-10-22T04:15:18;100121.88;;;12.08;100.00
45050;BME280;61798;48.048;-1.928;2022-10-22T04:17:24;100119.81;;;12.10;100.00
45050;BME280;61798;48.048;-1.928;2022-10-22T04:19:30;100125.75;;;12.25;100.00
45050;BME280;61798;48.048;-1.928;2022-10-22T04:21:37;100098.59;;;12.01;100.00
45050;BME280;61798;48.048;-1.928;2022-10-22T04:23:46;100116.91;;;12.18;100.00
45050;BME280;61798;48.048;-1.928;2022-10-22T04:26:03;100122.50;;;12.16;100.00
45050;BME280;61798;48.048;-1.928;2022-10-22T04:28:10;100125.38;;;12.22;100.00
45050;BME280;61798;48.048;-1.928;2022-10-22T04:30:15;100119.38;;;12.20;100.00
45050;BME280;61798;48.048;-1.928;2022-10-22T04:32:21;100142.00;;;12.37;100.00
45050;BME280;61798;48.048;-1.928;2022-10-22T04:34:27;100155.88;;;12.60;100.00
45050;BME280;61798;48.048;-1.928;2022-10-22T04:36:33;100137.78;;;12.48;100.00
45050;BME280;61798;48.048;-1.928;2022-10-22T04:38:40;100168.06;;;12.63;100.00
45050;BME280;61798;48.048;-1.928;2022-10-22T04:40:47;100149.94;;;12.51;100.00
45050;BME280;61798;48.048;-1.928;2022-10-22T04:42:53;100156.66;;;12.67;100.00
45050;BME280;61798;48.048;-1.928;2022-10-22T04:44:59;100160.38;;;12.66;100.00
45050;BME280;61798;48.048;-1.928;2022-10-22T04:47:04;100168.03;;;12.69;100.00
45050;BME280;61798;48.048;-1.928;2022-10-22T04:49:10;100159.59;;;12.59;100.00
45050;BME280;61798;48.048;-1.928;2022-10-22T04:51:18;100157.69;;;12.66;100.00
45050;BME280;61798;48.048;-1.928;2022-10-22T04:53:25;100156.09;;;12.58;100.00
45050;BME280;61798;48.048;-1.928;2022-10-22T04:55:30;100180.38;;;12.77;100.00
45050;BME280;61798;48.048;-1.928;2022-10-22T04:57:36;100178.53;;;12.71;100.00
45050;BME280;61798;48.048;-1.928;2022-10-22T04:59:42;100173.34;;;12.76;100.00
45050;BME280;61798;48.048;-1.928;2022-10-22T05:01:48;100179.69;;;12.82;100.00
45050;BME280;61798;48.048;-1.928;2022-10-22T05:03:56;100177.63;;;12.84;100.00
45050;BME280;61798;48.048;-1.928;2022-10-22T05:06:02;100152.28;;;12.73;100.00
45050;BME280;61798;48.048;-1.928;2022-10-22T05:08:08;100153.00;;;12.62;100.00
45050;BME280;61798;48.048;-1.928;2022-10-22T05:10:14;100165.72;;;12.73;100.00
45050;BME280;61798;48.048;-1.928;2022-10-22T05:12:20;100165.66;;;12.80;100.00
45050;BME280;61798;48.048;-1.928;2022-10-22T05:14:26;100170.81;;;12.82;100.00
45050;BME280;61798;48.048;-1.928;2022-10-22T05:16:33;100163.41;;;12.77;100.00
45050;BME280;61798;48.048;-1.928;2022-10-22T05:18:42;100172.81;;;12.86;100.00
45050;BME280;61798;48.048;-1.928;2022-10-22T05:20:48;100191.81;;;12.92;100.00
45050;BME280;61798;48.048;-1.928;2022-10-22T05:22:54;100173.66;;;12.87;100.00
45050;BME280;61798;48.048;-1.928;2022-10-22T05:25:00;100174.88;;;12.91;100.00
45050;BME280;61798;48.048;-1.928;2022-10-22T05:27:06;100177.78;;;12.89;100.00
45050;BME280;61798;48.048;-1.928;2022-10-22T05:29:12;100189.53;;;12.95;100.00
45050;BME280;61798;48.048;-1.928;2022-10-22T05:31:19;100191.63;;;12.93;100.00
45050;BME280;61798;48.048;-1.928;2022-10-22T05:33:26;100196.03;;;13.06;100.00
45050;BME280;61798;48.048;-1.928;2022-10-22T05:35:32;100182.28;;;12.96;100.00
45050;BME280;61798;48.048;-1.928;2022-10-22T05:37:38;100193.59;;;13.05;100.00
45050;BME280;61798;48.048;-1.928;2022-10-22T05:39:44;100185.97;;;13.02;100.00
45050;BME280;61798;48.048;-1.928;2022-10-22T05:41:50;100194.94;;;13.14;100.00
45050;BME280;61798;48.048;-1.928;2022-10-22T05:43:57;100209.22;;;13.15;100.00
45050;BME280;61798;48.048;-1.928;2022-10-22T05:46:08;100199.94;;;13.10;100.00
45050;BME280;61798;48.048;-1.928;2022-10-22T05:48:15;100198.53;;;13.08;100.00
45050;BME280;61798;48.048;-1.928;2022-10-22T05:50:21;100205.75;;;13.07;100.00
45050;BME280;61798;48.048;-1.928;2022-10-22T05:52:28;100172.56;;;12.95;100.00
45050;BME280;61798;48.048;-1.928;2022-10-22T05:54:35;100180.63;;;12.95;100.00
45050;BME280;61798;48.048;-1.928;2022-10-22T05:56:42;100195.22;;;13.06;100.00
45050;BME280;61798;48.048;-1.928;2022-10-22T05:58:50;100197.88;;;13.13;100.00
45050;BME280;61798;48.048;-1.928;2022-10-22T06:01:16;100209.31;;;13.27;100.00
45050;BME280;61798;48.048;-1.928;2022-10-22T06:03:23;100205.03;;;13.19;100.00
45050;BME280;61798;48.048;-1.928;2022-10-22T06:05:35;100194.34;;;13.12;100.00
45050;BME280;61798;48.048;-1.928;2022-10-22T06:07:43;100186.28;;;13.12;100.00
45050;BME280;61798;48.048;-1.928;2022-10-22T06:09:49;100174.22;;;12.96;100.00
45050;BME280;61798;48.048;-1.928;2022-10-22T06:11:57;100205.69;;;13.14;100.00
45050;BME280;61798;48.048;-1.928;2022-10-22T06:14:04;100199.09;;;13.10;100.00
45050;BME280;61798;48.048;-1.928;2022-10-22T06:16:12;100213.34;;;13.17;100.00
45050;BME280;61798;48.048;-1.928;2022-10-22T06:18:18;100197.91;;;13.06;100.00
45050;BME280;61798;48.048;-1.928;2022-10-22T06:20:26;100207.97;;;13.17;100.00
45050;BME280;61798;48.048;-1.928;2022-10-22T06:22:32;100226.91;;;13.29;100.00
45050;BME280;61798;48.048;-1.928;2022-10-22T06:24:39;100218.66;;;13.24;100.00
45050;BME280;61798;48.048;-1.928;2022-10-22T06:26:50;100230.84;;;13.27;100.00
45050;BME280;61798;48.048;-1.928;2022-10-22T06:28:57;100212.34;;;13.11;100.00
45050;BME280;61798;48.048;-1.928;2022-10-22T06:31:05;100230.47;;;13.23;100.00
45050;BME280;61798;48.048;-1.928;2022-10-22T06:33:13;100212.72;;;13.15;100.00
45050;BME280;61798;48.048;-1.928;2022-10-22T06:35:20;100224.50;;;13.21;100.00
45050;BME280;61798;48.048;-1.928;2022-10-22T06:37:27;100208.38;;;13.14;100.00
45050;BME280;61798;48.048;-1.928;2022-10-22T06:39:34;100220.53;;;13.24;100.00
45050;BME280;61798;48.048;-1.928;2022-10-22T06:41:41;100213.34;;;13.17;100.00
45050;BME280;61798;48.048;-1.928;2022-10-22T06:43:49;100235.94;;;13.35;100.00
45050;BME280;61798;48.048;-1.928;2022-10-22T06:46:02;100234.06;;;13.36;100.00
45050;BME280;61798;48.048;-1.928;2022-10-22T06:48:09;100223.75;;;13.32;100.00
45050;BME280;61798;48.048;-1.928;2022-10-22T06:50:16;100220.63;;;13.36;100.00
45050;BME280;61798;48.048;-1.928;2022-10-22T06:52:24;100211.25;;;13.38;100.00
45050;BME280;61798;48.048;-1.928;2022-10-22T06:54:31;100210.75;;;13.29;100.00
45050;BME280;61798;48.048;-1.928;2022-10-22T06:56:39;100219.59;;;13.37;100.00
45050;BME280;61798;48.048;-1.928;2022-10-22T06:58:51;100242.81;;;13.50;100.00
45050;BME280;61798;48.048;-1.928;2022-10-22T07:01:13;100245.97;;;13.47;100.00
45050;BME280;61798;48.048;-1.928;2022-10-22T07:03:21;100254.41;;;13.50;100.00
45050;BME280;61798;48.048;-1.928;2022-10-22T07:05:28;100209.94;;;13.29;100.00
45050;BME280;61798;48.048;-1.928;2022-10-22T07:07:35;100231.09;;;13.44;100.00
45050;BME280;61798;48.048;-1.928;2022-10-22T07:09:42;100254.13;;;13.59;100.00
45050;BME280;61798;48.048;-1.928;2022-10-22T07:11:52;100253.31;;;13.58;100.00
45050;BME280;61798;48.048;-1.928;2022-10-22T07:13:59;100261.97;;;13.67;100.00
45050;BME280;61798;48.048;-1.928;2022-10-22T07:16:06;100261.00;;;13.61;100.00
45050;BME280;61798;48.048;-1.928;2022-10-22T07:18:14;100256.00;;;13.58;100.00
45050;BME280;61798;48.048;-1.928;2022-10-22T07:20:21;100276.69;;;13.64;100.00
45050;BME280;61798;48.048;-1.928;2022-10-22T07:22:29;100274.47;;;13.61;100.00
45050;BME280;61798;48.048;-1.928;2022-10-22T07:24:36;100267.84;;;13.57;100.00
45050;BME280;61798;48.048;-1.928;2022-10-22T07:26:43;100246.13;;;13.52;100.00
45050;BME280;61798;48.048;-1.928;2022-10-22T07:28:50;100280.22;;;13.65;100.00
45050;BME280;61798;48.048;-1.928;2022-10-22T07:30:58;100290.91;;;13.72;100.00
45050;BME280;61798;48.048;-1.928;2022-10-22T07:33:06;100271.13;;;13.59;100.00
45050;BME280;61798;48.048;-1.928;2022-10-22T07:35:13;100289.72;;;13.68;100.00
45050;BME280;61798;48.048;-1.928;2022-10-22T07:37:21;100275.63;;;13.66;100.00
45050;BME280;61798;48.048;-1.928;2022-10-22T07:39:27;100288.88;;;13.67;100.00
45050;BME280;61798;48.048;-1.928;2022-10-22T07:41:36;100286.44;;;13.84;100.00
45050;BME280;61798;48.048;-1.928;2022-10-22T07:43:44;100273.84;;;13.78;100.00
45050;BME280;61798;48.048;-1.928;2022-10-22T07:45:51;100286.50;;;13.97;100.00
45050;BME280;61798;48.048;-1.928;2022-10-22T07:47:58;100268.47;;;13.78;100.00
45050;BME280;61798;48.048;-1.928;2022-10-22T07:50:06;100295.25;;;13.92;100.00
45050;BME280;61798;48.048;-1.928;2022-10-22T07:52:14;100308.81;;;14.04;100.00
45050;BME280;61798;48.048;-1.928;2022-10-22T07:54:20;100305.78;;;13.93;100.00
45050;BME280;61798;48.048;-1.928;2022-10-22T07:56:26;100305.97;;;13.99;100.00
45050;BME280;61798;48.048;-1.928;2022-10-22T07:58:32;100319.66;;;13.97;100.00
45050;BME280;61798;48.048;-1.928;2022-10-22T08:00:38;100307.38;;;13.82;100.00
45050;BME280;61798;48.048;-1.928;2022-10-22T08:02:44;100320.91;;;13.94;100.00
45050;BME280;61798;48.048;-1.928;2022-10-22T08:04:50;100314.50;;;13.95;100.00
45050;BME280;61798;48.048;-1.928;2022-10-22T08:06:56;100309.31;;;13.94;100.00
45050;BME280;61798;48.048;-1.928;2022-10-22T08:09:02;100309.94;;;13.96;100.00
45050;BME280;61798;48.048;-1.928;2022-10-22T08:11:08;100316.66;;;14.05;100.00
45050;BME280;61798;48.048;-1.928;2022-10-22T08:13:15;100285.31;;;13.92;100.00
45050;BME280;61798;48.048;-1.928;2022-10-22T08:15:20;100310.13;;;14.13;100.00
45050;BME280;61798;48.048;-1.928;2022-10-22T08:17:28;100291.81;;;14.03;100.00
45050;BME280;61798;48.048;-1.928;2022-10-22T08:19:34;100322.19;;;14.11;100.00
45050;BME280;61798;48.048;-1.928;2022-10-22T08:21:40;100288.75;;;14.00;100.00
45050;BME280;61798;48.048;-1.928;2022-10-22T08:23:46;100293.47;;;14.04;100.00
45050;BME280;61798;48.048;-1.928;2022-10-22T08:25:52;100283.75;;;14.03;100.00
45050;BME280;61798;48.048;-1.928;2022-10-22T08:27:58;100330.28;;;14.48;100.00
45050;BME280;61798;48.048;-1.928;2022-10-22T08:30:04;100331.03;;;14.37;100.00
45050;BME280;61798;48.048;-1.928;2022-10-22T08:32:11;100316.38;;;14.33;100.00
45050;BME280;61798;48.048;-1.928;2022-10-22T08:34:18;100315.44;;;14.39;100.00
45050;BME280;61798;48.048;-1.928;2022-10-22T08:36:24;100310.88;;;14.40;100.00
45050;BME280;61798;48.048;-1.928;2022-10-22T08:38:30;100295.69;;;14.26;100.00
45050;BME280;61798;48.048;-1.928;2022-10-22T08:40:38;100319.69;;;14.47;100.00
45050;BME280;61798;48.048;-1.928;2022-10-22T08:50:11;100336.50;;;14.80;100.00
45050;BME280;61798;48.048;-1.928;2022-10-22T08:52:19;100313.72;;;14.76;100.00
45050;BME280;61798;48.048;-1.928;2022-10-22T08:54:45;100334.91;;;14.91;100.00
45050;BME280;61798;48.048;-1.928;2022-10-22T08:59:22;100325.88;;;14.66;100.00
45050;BME280;61798;48.048;-1.928;2022-10-22T09:01:38;100345.06;;;14.77;100.00
45050;BME280;61798;48.048;-1.928;2022-10-22T09:03:53;100341.44;;;14.83;100.00
45050;BME280;61798;48.048;-1.928;2022-10-22T09:06:04;100343.44;;;14.88;100.00
45050;BME280;61798;48.048;-1.928;2022-10-22T09:08:15;100344.88;;;14.90;100.00
45050;BME280;61798;48.048;-1.928;2022-10-22T09:10:27;100347.13;;;14.94;100.00
45050;BME280;61798;48.048;-1.928;2022-10-22T09:12:34;100323.13;;;14.85;99.10
45050;BME280;61798;48.048;-1.928;2022-10-22T09:14:40;100301.53;;;14.85;98.94
45050;BME280;61798;48.048;-1.928;2022-10-22T09:19:25;100319.59;;;15.04;98.43
45050;BME280;61798;48.048;-1.928;2022-10-22T09:24:12;100325.84;;;15.28;98.66
45050;BME280;61798;48.048;-1.928;2022-10-22T09:26:24;100328.78;;;15.27;97.79
45050;BME280;61798;48.048;-1.928;2022-10-22T09:28:30;100309.41;;;15.18;97.64
45050;BME280;61798;48.048;-1.928;2022-10-22T09:30:37;100313.06;;;15.24;98.55
45050;BME280;61798;48.048;-1.928;2022-10-22T09:32:43;100328.31;;;15.30;97.79
45050;BME280;61798;48.048;-1.928;2022-10-22T09:34:55;100337.38;;;15.48;97.99
45050;BME280;61798;48.048;-1.928;2022-10-22T09:37:05;100331.16;;;15.47;96.56
45050;BME280;61798;48.048;-1.928;2022-10-22T09:39:26;100326.69;;;15.65;97.36
45050;BME280;61798;48.048;-1.928;2022-10-22T09:41:32;100314.25;;;15.52;95.94
45050;BME280;61798;48.048;-1.928;2022-10-22T09:43:38;100321.88;;;15.67;96.34
45050;BME280;61798;48.048;-1.928;2022-10-22T09:45:46;100321.63;;;15.69;94.96
45050;BME280;61798;48.048;-1.928;2022-10-22T09:48:11;100320.81;;;15.80;95.36
45050;BME280;61798;48.048;-1.928;2022-10-22T09:52:33;100321.72;;;15.98;95.44
45050;BME280;61798;48.048;-1.928;2022-10-22T09:54:40;100301.44;;;15.71;94.50
45050;BME280;61798;48.048;-1.928;2022-10-22T09:58:56;100317.28;;;16.16;95.27
45050;BME280;61798;48.048;-1.928;2022-10-22T10:01:02;100303.66;;;15.86;93.96
45050;BME280;61798;48.048;-1.928;2022-10-22T10:03:16;100330.31;;;16.07;94.27
45050;BME280;61798;48.048;-1.928;2022-10-22T10:05:32;100325.97;;;16.18;94.22
45050;BME280;61798;48.048;-1.928;2022-10-22T10:07:38;100307.41;;;16.10;94.31
45050;BME280;61798;48.048;-1.928;2022-10-22T10:09:44;100310.69;;;16.12;93.87
45050;BME280;61798;48.048;-1.928;2022-10-22T10:14:20;100308.34;;;16.15;93.25
45050;BME280;61798;48.048;-1.928;2022-10-22T10:21:24;100328.03;;;16.40;92.42
45050;BME280;61798;48.048;-1.928;2022-10-22T10:23:54;100328.75;;;16.35;92.03
45050;BME280;61798;48.048;-1.928;2022-10-22T10:26:09;100326.03;;;16.35;91.40
45050;BME280;61798;48.048;-1.928;2022-10-22T10:33:33;100322.31;;;16.54;90.91
45050;BME280;61798;48.048;-1.928;2022-10-22T10:40:42;100303.16;;;16.55;90.51
45050;BME280;61798;48.048;-1.928;2022-10-22T10:42:54;100315.81;;;16.67;90.64
45050;BME280;61798;48.048;-1.928;2022-10-22T10:45:41;100314.94;;;16.78;89.69
45050;BME280;61798;48.048;-1.928;2022-10-22T10:53:13;100323.53;;;16.92;88.65
45050;BME280;61798;48.048;-1.928;2022-10-22T10:55:59;100316.25;;;16.93;88.80
45050;BME280;61798;48.048;-1.928;2022-10-22T10:58:52;100316.91;;;17.00;87.96
45050;BME280;61798;48.048;-1.928;2022-10-22T11:01:26;100319.94;;;17.04;87.52
45050;BME280;61798;48.048;-1.928;2022-10-22T11:05:55;100318.50;;;17.13;88.53
45050;BME280;61798;48.048;-1.928;2022-10-22T11:09:23;100316.50;;;17.09;88.07
45050;BME280;61798;48.048;-1.928;2022-10-22T11:13:33;100296.09;;;17.53;86.97
45050;BME280;61798;48.048;-1.928;2022-10-22T11:15:46;100289.25;;;17.68;86.78
45050;BME280;61798;48.048;-1.928;2022-10-22T11:18:01;100289.72;;;17.82;85.64
45050;BME280;61798;48.048;-1.928;2022-10-22T11:20:18;100291.28;;;18.00;83.88
45050;BME280;61798;48.048;-1.928;2022-10-22T11:22:32;100295.00;;;18.16;84.62
45050;BME280;61798;48.048;-1.928;2022-10-22T11:25:12;100277.69;;;17.95;83.79
45050;BME280;61798;48.048;-1.928;2022-10-22T11:27:27;100295.53;;;18.36;83.58
45050;BME280;61798;48.048;-1.928;2022-10-22T11:29:42;100271.44;;;18.39;83.64
45050;BME280;61798;48.048;-1.928;2022-10-22T11:31:51;100261.97;;;18.42;82.88
45050;BME280;61798;48.048;-1.928;2022-10-22T11:36:21;100272.06;;;18.47;81.91
45050;BME280;61798;48.048;-1.928;2022-10-22T11:38:28;100283.41;;;18.44;81.15
45050;BME280;61798;48.048;-1.928;2022-10-22T11:40:46;100282.13;;;18.52;80.03
45050;BME280;61798;48.048;-1.928;2022-10-22T11:43:03;100275.63;;;18.53;80.43
45050;BME280;61798;48.048;-1.928;2022-10-22T11:47:23;100275.94;;;18.56;80.59
45050;BME280;61798;48.048;-1.928;2022-10-22T11:49:54;100257.63;;;18.41;79.55
45050;BME280;61798;48.048;-1.928;2022-10-22T11:52:21;100243.56;;;18.22;79.43
45050;BME280;61798;48.048;-1.928;2022-10-22T11:56:37;100249.66;;;18.12;80.07
45050;BME280;61798;48.048;-1.928;2022-10-22T11:58:43;100263.09;;;18.24;80.49
45050;BME280;61798;48.048;-1.928;2022-10-22T12:00:51;100250.50;;;18.35;82.43
45050;BME280;61798;48.048;-1.928;2022-10-22T12:03:15;100253.84;;;18.42;81.66
45050;BME280;61798;48.048;-1.928;2022-10-22T12:09:39;100264.13;;;18.17;78.33
45050;BME280;61798;48.048;-1.928;2022-10-22T12:11:46;100270.50;;;18.28;78.66
45050;BME280;61798;48.048;-1.928;2022-10-22T12:16:22;100272.47;;;18.33;77.98
45050;BME280;61798;48.048;-1.928;2022-10-22T12:18:38;100266.63;;;18.47;77.67
45050;BME280;61798;48.048;-1.928;2022-10-22T12:20:50;100252.75;;;18.43;77.75
45050;BME280;61798;48.048;-1.928;2022-10-22T12:22:57;100261.31;;;18.57;78.56